Boyd Deep Canyon Reserve, California Weather observations

Data are for 10 minute period ending at time listed.
 Day   Time   Solar   Ave.   Ave.  Ave.  Vector  Max.   Baro.   Total    
  of    of     Rad.   Air    Rel.  Wind   Wind   Wind  Press.  Precip.   
Year   Day            Temp.  Hum.  Speed  Dir.   Gust                    
2014   (PST)  Kw/m2    F      %     mph   deg.    mph    mb.     in.     
-------------------------------------------------------------------------
 302    9:10   0.54   84.5    11    1.2   138     2.9   982.3    0.00 
 302    9:20   0.56   84.9    11    2.0    44     4.5   982.3    0.00 
 302    9:30   0.58   83.6    11    4.1    15     5.9   982.3    0.00 
 302    9:40   0.60   83.5    11    3.5    14     5.8   982.3    0.00 
 302    9:50   0.63   84.3    11    2.3    16     5.6   982.2    0.00 
 302   10:00   0.65   84.7    11    2.8   346     4.8   982.2    0.00 
 302   10:10   0.66   84.5    11    2.2     9     5.1   982.2    0.00 
 302   10:20   0.68   85.2    11    2.5   341     6.4   982.2    0.00 
 302   10:30   0.69   85.4    10    3.7   357     7.1   982.2    0.00 
 302   10:40   0.70   86.2    10    4.3     7     7.4   982.1    0.00 
 302   10:50   0.71   86.0    10    4.1     7     7.4   982.0    0.00 
 302   11:00   0.72   85.7    11    4.0    50     6.7   981.9    0.00 
 302   11:10   0.73   85.9    12    4.2    79     8.6   981.9    0.00 
 302   11:20   0.73   86.4    11    3.4    71     7.5   981.7    0.00 
 302   11:30   0.73   86.6    10    4.3    78     7.0   981.6    0.00 
 302   11:40   0.73   87.5    10    3.2    73     6.5   981.5    0.00 
 302   11:50   0.73   86.9    10    3.7    88     7.0   981.3    0.00 
 302   12:00   0.73   87.5    10    3.7    70     8.7   981.2    0.00 
 302   12:10   0.70   87.4    10    3.1    82     9.0   981.1    0.00 
 302   12:20   0.72   87.1     9    3.3    92     6.6   981.0    0.00 
 302   12:30   0.71   88.0     9    2.8   168     6.7   980.8    0.00 
 302   12:40   0.70   88.4     9    1.7   104     5.6   980.7    0.00 
 302   12:50   0.68   88.2    10    2.9    56     7.5   980.5    0.00 
 302   13:00   0.67   88.1    10    3.3    77     5.7   980.4    0.00 
 302   13:10   0.65   88.4     9    2.6    96     5.6   980.3    0.00 
 302   13:20   0.64   88.7     9    2.9    76     6.1   980.2    0.00 
 302   13:30   0.62   90.0     9    2.1    42     4.5   980.1    0.00 
 302   13:40   0.60   89.9     9    2.6   142     7.8   980.0    0.00 
 302   13:50   0.57   89.1     9    3.4    98     6.7   979.9    0.00 
 302   14:00   0.55   88.8     9    3.6    62     7.3   979.9    0.00 
 302   14:10   0.52   88.5     9    2.2   109     7.3   979.8    0.00 
 302   14:20   0.49   89.7     9    3.0   100     7.6   979.7    0.00 
 302   14:30   0.47   89.9     8    2.7    79     7.6   979.7    0.00 
 302   14:40   0.43   89.9     8    2.6   124     6.5   979.6    0.00 
 302   14:50   0.40   89.9     9    4.2   105     9.2   979.6    0.00 
 302   15:00   0.37   89.0     9    4.3    59     7.7   979.5    0.00 
 302   15:10   0.34   89.1     9    3.8    56     7.3   979.4    0.00 
 302   15:20   0.30   88.8     9    4.7    76     7.9   979.3    0.00 
 302   15:30   0.27   88.1    10    3.6    97     6.7   979.3    0.00 
 302   15:40   0.21   87.6    11    6.2    71    10.3   979.1    0.00 
 302   15:50   0.03   86.0    12    6.2    77     9.0   979.0    0.00 
 302   16:00   0.02   85.4    13    5.9    73     8.0   978.8    0.00 
 302   16:10   0.01   85.0    14    4.8    90     8.3   978.7    0.00 
 302   16:20   0.01   84.6    14    5.0   103     8.9   978.6    0.00 
 302   16:30   0.01   84.2    15    3.5   107     7.2   978.6    0.00 
 302   16:40   0.01   84.2    14    3.7   119     7.5   978.7    0.00 
 302   16:50   0.01   83.9    13    1.0   165     4.2   978.8    0.00 
 302   17:00   0.00   83.5    13    3.8   109     6.4   978.9    0.00 
 302   17:10   0.00   82.9    12    3.3   156     4.3   978.9    0.00 
 302   17:20   0.00   82.7    12    3.2   182     4.2   978.9    0.00 
 302   17:30   0.00   82.0    12    3.5   185     4.7   979.0    0.00 
 302   17:40   0.00   82.4    12    5.3   193     9.4   979.1    0.00 
 302   17:50   0.00   82.5    11    5.7   188    11.8   979.2    0.00 
 302   18:00   0.00   82.1    11    6.9   184    12.1   979.3    0.00 
 302   18:10   0.00   81.8    11    9.0   197    13.6   979.3    0.00 
 302   18:20   0.00   81.2    12    8.1   201    12.6   979.4    0.00 
 302   18:30   0.00   81.1    12    8.0   196    15.3   979.5    0.00 
 302   18:40   0.00   80.9    12    8.4   197    13.7   979.5    0.00 
 302   18:50   0.00   80.7    12    8.2   200    13.2   979.6    0.00 
 302   19:00   0.00   80.4    12    8.0   198    12.7   979.6    0.00 
 302   19:10   0.00   80.3    13    7.2   192    11.8   979.6    0.00 
 302   19:20   0.00   80.2    13    7.3   203    12.9   979.7    0.00 
 302   19:30   0.00   79.9    13    7.2   208    13.2   979.8    0.00 
 302   19:40   0.00   79.8    13    6.1   208    13.0   979.9    0.00 
 302   19:50   0.00   79.4    13    6.4   211     9.6   980.0    0.00 
 302   20:00   0.00   79.2    13    7.7   215    12.0   980.1    0.00 
 302   20:10   0.00   79.2    13    7.8   224    11.8   980.2    0.00 
 302   20:20   0.00   79.2    13    7.3   220    12.2   980.3    0.00 
 302   20:30   0.00   78.8    13    5.3   198     9.6   980.4    0.00 
 302   20:40   0.00   77.7    16    2.5   203     8.6   980.4    0.00 
 302   20:50   0.00   76.2    16    3.4   212     9.9   980.5    0.00 
 302   21:00   0.00   77.1    14    2.1   170    10.4   980.6    0.00 
 302   21:10   0.00   76.6    14    5.2   223    10.2   980.6    0.00 
 302   21:20   0.00   77.4    14    2.6   228     6.6   980.7    0.00 
 302   21:30   0.00   76.4    14    3.0   255     8.0   980.7    0.00 
 302   21:40   0.00   74.6    16    1.0    35     3.1   980.7    0.00 
 302   21:50   0.00   74.1    16    1.3    42     2.9   980.7    0.00 
 302   22:00   0.00   73.7    16    1.5     4     2.9   980.7    0.00 
 302   22:10   0.00   72.6    17    1.9    12     3.0   980.8    0.00 
 302   22:20   0.00   72.1    17    1.2    32     2.7   980.7    0.00 
 302   22:30   0.00   72.7    17    0.9    21     2.0   980.6    0.00 
 302   22:40   0.00   71.7    18    1.2    52     3.3   980.5    0.00 
 302   22:50   0.00   74.0    16    3.1   166     7.7   980.5    0.00 
 302   23:00   0.00   75.8    14    3.3   180     7.1   980.4    0.00 
 302   23:10   0.00   75.9    14    2.9   188     8.9   980.4    0.00 
 302   23:20   0.00   76.5    14    5.4   196     9.4   980.4    0.00 
 302   23:30   0.00   76.4    14    6.2   205     9.1   980.4    0.00 
 302   23:40   0.00   76.1    15    5.6   200     9.4   980.4    0.00 
 302   23:50   0.00   76.5    15    6.1   203    10.8   980.4    0.00 
 303    0:00   0.00   76.7    15    6.5   192    11.5   980.4    0.00 
 303    0:10   0.00   76.4    15    6.2   191    11.1   980.4    0.00 
 303    0:20   0.00   76.2    16    6.4   198     9.8   980.4    0.00 
 303    0:30   0.00   76.4    16    7.1   195    11.1   980.4    0.00 
 303    0:40   0.00   76.4    17    8.6   194    13.4   980.3    0.00 
 303    0:50   0.00   76.4    17    7.9   200    13.3   980.2    0.00 
 303    1:00   0.00   76.4    17    7.4   196    12.4   980.2    0.00 
 303    1:10   0.00   76.2    17    8.1   196    13.7   980.1    0.00 
 303    1:20   0.00   76.2    17    6.8   193    13.2   980.1    0.00 
 303    1:30   0.00   76.2    16    7.0   196    14.8   980.0    0.00 
 303    1:40   0.00   75.8    17    6.3   198    11.2   979.8    0.00 
 303    1:50   0.00   75.7    17    6.4   204    10.8   979.8    0.00 
 303    2:00   0.00   75.5    17    6.2   207    10.6   979.7    0.00 
 303    2:10   0.00   75.3    16    7.4   213    12.9   979.7    0.00 
 303    2:20   0.00   75.4    16    6.7   198    12.0   979.7    0.00 
 303    2:30   0.00   75.2    16    7.4   198    13.7   979.7    0.00 
 303    2:40   0.00   75.1    16    6.9   196    11.6   979.7    0.00 
 303    2:50   0.00   74.9    16    6.5   201    10.5   979.6    0.00 
 303    3:00   0.00   74.5    16    9.2   224    14.9   979.5    0.00 
 303    3:10   0.00   74.6    16    8.9   215    15.1   979.4    0.00 
 303    3:20   0.00   74.6    16    8.2   211    13.2   979.4    0.00 
 303    3:30   0.00   74.5    16    8.6   204    13.2   979.5    0.00 
 303    3:40   0.00   74.7    16    7.7   208    14.6   979.5    0.00 
 303    3:50   0.00   74.8    15    7.5   197    11.8   979.5    0.00 
 303    4:00   0.00   74.9    16    8.6   201    13.7   979.6    0.00 
 303    4:10   0.00   74.8    15    7.8   206    12.6   979.6    0.00 
 303    4:20   0.00   74.7    16    9.1   205    14.1   979.6    0.00 
 303    4:30   0.00   74.8    16    9.0   201    15.3   979.7    0.00 
 303    4:40   0.00   74.9    16    9.9   196    16.1   979.8    0.00 
 303    4:50   0.00   74.7    16    9.3   200    15.8   979.8    0.00 
 303    5:00   0.00   74.8    16   10.1   201    16.1   979.9    0.00 
 303    5:10   0.00   74.8    16    8.9   204    15.2   979.9    0.00 
 303    5:20   0.00   74.4    16    9.9   205    15.9   979.9    0.00 
 303    5:30   0.00   74.3    16    8.8   201    14.1   980.0    0.00 
 303    5:40   0.00   74.3    16    9.3   205    13.4   980.1    0.00 
 303    5:50   0.00   74.2    16    8.6   205    14.6   980.1    0.00 
 303    6:00   0.00   74.1    16    9.6   217    14.2   980.2    0.00 
 303    6:10   0.00   74.0    16    9.9   221    14.0   980.3    0.00 
 303    6:20   0.01   74.1    16    9.6   215    14.2   980.3    0.00 
 303    6:30   0.03   74.0    16    9.0   212    14.9   980.4    0.00 
 303    6:40   0.03   74.0    16    9.3   215    14.6   980.4    0.00 
 303    6:50   0.05   74.1    15    8.4   213    14.0   980.5    0.00 
 303    7:00   0.07   74.5    15    8.9   204    15.6   980.5    0.00 
 303    7:10   0.07   74.9    15    7.8   196    15.0   980.6    0.00 
 303    7:20   0.12   75.4    14    7.6   194    12.0   980.6    0.00 
 303    7:30   0.15   75.9    14    7.5   207    11.8   980.7    0.00 
 303    7:40   0.23   76.7    14    8.0   214    12.8   980.7    0.00 
 303    7:50   0.20   77.6    14    6.4   204    12.7   980.6    0.00 
 303    8:00   0.27   78.0    14    5.2   167     8.9   980.6    0.00 
 303    8:10   0.41   80.0    13    4.3   164     7.5   980.6    0.00 
 303    8:20   0.47   81.8    13    2.2   159     5.0   980.5    0.00 
 303    8:30   0.51   83.3    12    1.2   123     2.3   980.5    0.00 
 303    8:40   0.53   84.6    12    0.7   157     2.0   980.4    0.00 
 303    8:50   0.57   86.9    11    1.0    31     3.2   980.2    0.00 
 303    9:00   0.51   83.4    13    5.1    10     8.6   980.3    0.00 

Return to Boyd Deep Canyon Reserve graphs page.


Western Regional Climate Center,wrcc@dri.edu